createdAt,value
2019-02-02T00:00:22.023Z,56.63
2019-02-02T00:02:49.238Z,67.50
2019-02-02T00:05:16.290Z,55.73
2019-02-02T00:07:43.387Z,76.63
2019-02-02T00:10:16.497Z,61.07
2019-02-02T00:12:43.591Z,57.07
2019-02-02T00:15:17.048Z,56.43
2019-02-02T00:17:44.091Z,58.97
2019-02-02T00:20:11.468Z,49.50
2019-02-02T00:22:38.571Z,61.87
2019-02-02T00:25:06.127Z,55.10
2019-02-02T00:27:41.084Z,68.40
2019-02-02T00:30:03.401Z,57.00
2019-02-02T00:32:30.555Z,52.93
2019-02-02T00:34:57.674Z,49.40
2019-02-02T00:37:24.809Z,59.37
2019-02-02T00:39:51.895Z,48.33
2019-02-02T00:42:18.963Z,60.43
2019-02-02T00:44:46.167Z,47.20
2019-02-02T00:47:13.324Z,56.13
2019-02-02T00:49:40.390Z,58.80
2019-02-02T00:52:07.742Z,51.03
2019-02-02T00:54:34.884Z,52.83
2019-02-02T00:57:01.950Z,57.03
2019-02-02T00:59:29.066Z,55.97
2019-02-02T01:01:56.593Z,58.63
2019-02-02T01:04:23.671Z,56.70
2019-02-02T01:06:50.789Z,62.20
2019-02-02T01:09:24.463Z,60.63
2019-02-02T01:11:51.637Z,51.20
2019-02-02T01:14:18.971Z,52.87
2019-02-02T01:17:28.224Z,50.70
2019-02-02T01:19:55.312Z,52.83
2019-02-02T01:22:22.379Z,51.83
2019-02-02T01:24:49.476Z,49.27
2019-02-02T01:27:16.563Z,48.50
2019-02-02T01:29:43.610Z,49.53
2019-02-02T01:32:13.802Z,57.77
2019-02-02T01:34:39.801Z,53.80
2019-02-02T01:37:06.852Z,55.90
2019-02-02T01:39:33.935Z,54.30
2019-02-02T01:42:01.271Z,47.33
2019-02-02T01:44:28.317Z,48.63
2019-02-02T01:46:55.437Z,55.70
2019-02-02T01:49:22.510Z,49.00
2019-02-02T01:51:49.599Z,58.33
2019-02-02T01:54:16.687Z,59.47
2019-02-02T01:56:43.741Z,52.67
2019-02-02T01:59:10.837Z,54.37
2019-02-02T02:01:38.212Z,58.17
2019-02-02T02:04:05.363Z,51.17
2019-02-02T02:06:32.434Z,59.40
2019-02-02T02:08:59.622Z,60.33
2019-02-02T02:11:26.700Z,64.50
2019-02-02T02:13:53.811Z,54.70
2019-02-02T02:16:21.890Z,50.87
2019-02-02T02:18:49.013Z,61.93
2019-02-02T02:21:31.456Z,57.97
2019-02-02T02:23:58.543Z,60.97
2019-02-02T02:26:25.590Z,70.70
2019-02-02T02:28:52.633Z,54.33
2019-02-02T02:31:19.865Z,57.67
2019-02-02T02:33:46.905Z,66.43
2019-02-02T02:36:14.195Z,64.97
2019-02-02T02:38:42.992Z,54.73
2019-02-02T02:41:10.108Z,68.93
2019-02-02T02:43:37.113Z,64.57
2019-02-02T02:46:04.533Z,57.80
2019-02-02T02:48:31.569Z,63.60
2019-02-02T02:50:58.638Z,64.23
2019-02-02T02:53:25.708Z,55.33
2019-02-02T02:55:52.778Z,62.90
2019-02-02T02:58:19.967Z,58.67
2019-02-02T03:00:47.038Z,59.23
2019-02-02T03:03:14.101Z,57.87
2019-02-02T03:05:41.256Z,53.00
2019-02-02T03:08:08.458Z,59.40
2019-02-02T03:10:35.498Z,57.30
2019-02-02T03:13:02.948Z,65.53
2019-02-02T03:15:30.030Z,61.97
2019-02-02T03:17:57.075Z,63.70
2019-02-02T03:20:24.135Z,60.50
2019-02-02T03:22:51.232Z,77.20
2019-02-02T03:25:20.265Z,63.17
2019-02-02T03:27:47.338Z,74.60
2019-02-02T03:30:16.113Z,63.73
2019-02-02T03:32:43.177Z,65.90
2019-02-02T03:35:11.166Z,60.07
2019-02-02T03:37:38.480Z,61.50
2019-02-02T03:40:08.532Z,61.17
2019-02-02T03:42:35.590Z,63.90
2019-02-02T03:45:02.799Z,67.47
2019-02-02T03:47:29.850Z,71.17
2019-02-02T03:49:56.911Z,60.63
2019-02-02T03:52:24.248Z,67.10
2019-02-02T03:54:51.301Z,68.70
2019-02-02T03:57:18.340Z,67.07
2019-02-02T03:59:45.409Z,72.33
2019-02-02T04:02:12.500Z,67.53
2019-02-02T04:04:39.559Z,74.40
2019-02-02T04:07:06.641Z,80.20
2019-02-02T04:09:33.699Z,68.60
2019-02-02T04:12:00.859Z,79.20
2019-02-02T04:14:27.983Z,69.23
2019-02-02T04:16:55.350Z,66.83
2019-02-02T04:19:22.417Z,79.80
2019-02-02T04:21:49.507Z,76.63
2019-02-02T04:24:16.570Z,79.93
2019-02-02T04:26:43.736Z,85.60
2019-02-02T04:29:17.656Z,81.43
2019-02-02T04:31:40.067Z,79.67
2019-02-02T04:34:07.226Z,79.77
2019-02-02T04:36:34.365Z,80.50
2019-02-02T04:39:01.410Z,80.97
2019-02-02T04:41:28.449Z,81.47
2019-02-02T04:43:55.536Z,89.33
2019-02-02T04:46:22.584Z,81.47
2019-02-02T04:48:49.647Z,88.20
2019-02-02T04:51:16.743Z,78.90
2019-02-02T04:53:43.790Z,91.07
2019-02-02T04:56:10.895Z,86.87
2019-02-02T04:58:40.774Z,83.47
2019-02-02T05:01:07.841Z,86.77
2019-02-02T05:03:35.141Z,91.10
2019-02-02T05:06:02.194Z,81.47
2019-02-02T05:08:29.239Z,82.10
2019-02-02T05:10:56.324Z,84.57
2019-02-02T05:13:23.391Z,100.67
2019-02-02T05:15:50.394Z,91.07
2019-02-02T05:18:17.501Z,84.97
2019-02-02T05:20:44.566Z,92.63
2019-02-02T05:23:11.606Z,93.33
2019-02-02T05:25:38.687Z,91.27
2019-02-02T05:28:05.797Z,92.00
2019-02-02T05:30:32.849Z,86.13
2019-02-02T05:32:59.910Z,91.83
2019-02-02T05:35:26.985Z,93.60
2019-02-02T05:37:54.654Z,97.13
2019-02-02T05:40:21.735Z,86.80
2019-02-02T05:42:49.010Z,113.53
2019-02-02T05:45:17.762Z,91.83
2019-02-02T05:47:44.816Z,100.33
2019-02-02T05:50:13.825Z,99.10
2019-02-02T05:52:40.874Z,105.93
2019-02-02T05:55:09.417Z,90.70
2019-02-02T05:57:36.502Z,103.13
2019-02-02T06:00:06.900Z,107.27
2019-02-02T06:02:33.932Z,94.50
2019-02-02T06:05:01.231Z,106.27
2019-02-02T06:07:28.278Z,104.20
2019-02-02T06:09:55.327Z,111.97
2019-02-02T06:12:22.409Z,109.07
2019-02-02T06:14:51.005Z,110.33
2019-02-02T06:17:18.037Z,107.87
2019-02-02T06:19:45.190Z,109.87
2019-02-02T06:22:12.246Z,110.57
2019-02-02T06:24:39.298Z,106.30
2019-02-02T06:27:06.411Z,106.77
2019-02-02T06:29:33.484Z,128.90
2019-02-02T06:32:10.988Z,105.83
2019-02-02T06:34:29.758Z,102.73
2019-02-02T06:36:56.855Z,123.07
2019-02-02T06:39:23.928Z,107.90
2019-02-02T06:41:51.065Z,109.07
2019-02-02T06:44:18.416Z,118.30
2019-02-02T06:46:45.457Z,118.53
2019-02-02T06:49:12.703Z,121.17
2019-02-02T06:51:39.872Z,112.73
2019-02-02T06:54:06.925Z,124.60
2019-02-02T06:56:34.016Z,110.03
2019-02-02T06:59:01.220Z,113.13
2019-02-02T07:01:28.331Z,136.47
2019-02-02T07:03:55.442Z,118.87
2019-02-02T07:06:22.520Z,129.20
2019-02-02T07:08:49.563Z,111.07
2019-02-02T07:11:16.678Z,119.60
2019-02-02T07:13:43.729Z,120.50
2019-02-02T07:16:10.845Z,106.67
2019-02-02T07:18:37.940Z,119.10
2019-02-02T07:21:04.997Z,134.63
2019-02-02T07:23:32.075Z,123.30
2019-02-02T07:25:59.174Z,126.00
2019-02-02T07:28:27.352Z,121.43
2019-02-02T07:30:54.412Z,120.30
2019-02-02T07:33:22.883Z,133.17
2019-02-02T07:35:49.958Z,134.00
2019-02-02T07:38:17.016Z,132.20
2019-02-02T07:40:44.087Z,121.87
2019-02-02T07:43:11.172Z,131.63
2019-02-02T07:45:38.483Z,137.07
2019-02-02T07:48:05.652Z,138.87
2019-02-02T07:50:32.726Z,143.57
2019-02-02T07:53:00.037Z,127.03
2019-02-02T07:55:27.056Z,139.90
2019-02-02T07:57:54.441Z,135.00
2019-02-02T08:00:40.168Z,131.17
2019-02-02T08:02:58.771Z,143.73
2019-02-02T08:05:26.008Z,146.13
2019-02-02T08:07:53.125Z,135.70
2019-02-02T08:10:20.598Z,137.73
2019-02-02T08:12:48.176Z,141.97
2019-02-02T08:15:20.726Z,133.27
2019-02-02T08:17:48.184Z,159.77
2019-02-02T08:20:15.481Z,139.03
2019-02-02T08:22:42.827Z,154.03
2019-02-02T08:25:11.394Z,153.70
2019-02-02T08:27:38.481Z,138.50
2019-02-02T08:30:12.510Z,136.63
2019-02-02T08:32:39.596Z,137.37
2019-02-02T08:36:16.076Z,146.70
2019-02-02T08:38:49.757Z,139.10
2019-02-02T08:41:16.811Z,138.43
2019-02-02T08:43:43.964Z,145.00
2019-02-02T08:46:12.681Z,132.40
2019-02-02T08:48:39.751Z,147.30
2019-02-02T08:51:16.594Z,144.77
2019-02-02T08:53:43.654Z,155.57
2019-02-02T08:56:10.790Z,156.47
2019-02-02T08:58:38.069Z,154.13
2019-02-02T09:01:05.168Z,147.30
2019-02-02T09:03:32.319Z,152.57
2019-02-02T09:05:59.472Z,150.13
2019-02-02T09:08:26.927Z,148.70
2019-02-02T09:11:01.188Z,170.20
2019-02-02T09:13:28.288Z,143.17
2019-02-02T09:15:55.547Z,135.30
2019-02-02T09:18:24.002Z,153.47
2019-02-02T09:20:51.085Z,149.67
2019-02-02T09:23:18.253Z,132.83
2019-02-02T09:25:45.353Z,199.63
2019-02-02T09:28:12.487Z,180.73
2019-02-02T09:30:39.883Z,156.50
2019-02-02T09:33:07.521Z,138.50
2019-02-02T09:35:34.604Z,139.97
2019-02-02T09:38:01.896Z,154.17
2019-02-02T09:40:29.086Z,136.70
2019-02-02T09:42:56.163Z,142.57
2019-02-02T09:45:23.720Z,140.73
2019-02-02T09:47:51.150Z,124.20
2019-02-02T09:50:20.551Z,128.27
2019-02-02T09:52:47.763Z,138.13
2019-02-02T09:55:16.669Z,142.83
2019-02-02T09:57:43.831Z,147.60
2019-02-02T10:00:19.682Z,154.20
2019-02-02T10:02:46.874Z,159.33
2019-02-02T10:05:14.072Z,149.60
2019-02-02T10:07:41.229Z,139.20
2019-02-02T10:10:12.918Z,142.93
2019-02-02T10:12:45.400Z,160.13
2019-02-02T10:15:12.916Z,149.33
2019-02-02T10:17:39.951Z,151.23
2019-02-02T10:20:09.150Z,149.63
2019-02-02T10:22:36.248Z,145.17
2019-02-02T10:25:05.203Z,132.20
2019-02-02T10:27:32.309Z,147.43
2019-02-02T10:29:59.476Z,136.37
2019-02-02T10:32:26.605Z,148.03
2019-02-02T10:34:53.757Z,135.40
2019-02-02T10:37:20.827Z,133.60
2019-02-02T10:39:48.403Z,149.27
2019-02-02T10:42:17.322Z,151.70
2019-02-02T10:44:44.387Z,154.30
2019-02-02T10:47:11.595Z,152.57
2019-02-02T10:49:38.644Z,155.67
2019-02-02T10:52:05.776Z,150.20
2019-02-02T10:54:35.084Z,156.27
2019-02-02T10:57:02.108Z,152.07
2019-02-02T10:59:29.296Z,144.50
2019-02-02T11:01:56.408Z,166.57
2019-02-02T11:04:23.500Z,163.70
2019-02-02T11:06:50.586Z,157.27
2019-02-02T11:09:17.918Z,162.27
2019-02-02T11:11:45.112Z,150.80
2019-02-02T11:14:12.300Z,151.50
2019-02-02T11:16:39.765Z,132.87
2019-02-02T11:19:06.935Z,154.93
2019-02-02T11:21:34.389Z,154.60
2019-02-02T11:24:01.527Z,157.13
2019-02-02T11:26:28.595Z,146.60
2019-02-02T11:28:55.772Z,143.77
2019-02-02T11:31:22.853Z,166.03
2019-02-02T11:33:50.008Z,144.30
2019-02-02T11:36:17.106Z,143.57
2019-02-02T11:38:46.473Z,140.97
2019-02-02T11:41:13.595Z,155.73
2019-02-02T11:43:40.711Z,155.70
2019-02-02T11:46:07.837Z,156.00
2019-02-02T11:48:36.280Z,167.77
2019-02-02T11:51:03.337Z,166.00
2019-02-02T11:53:30.500Z,167.00
2019-02-02T11:55:57.630Z,157.20
2019-02-02T11:58:24.699Z,165.40
2019-02-02T12:00:51.832Z,167.40
2019-02-02T12:03:19.007Z,162.00
2019-02-02T12:05:46.101Z,173.40
2019-02-02T12:08:13.189Z,154.07
2019-02-02T12:10:40.312Z,154.20
2019-02-02T12:13:07.411Z,156.17
2019-02-02T12:15:34.488Z,155.13
2019-02-02T12:18:01.811Z,165.77
2019-02-02T12:20:29.088Z,154.93
2019-02-02T12:22:56.181Z,160.67
2019-02-02T12:25:23.508Z,164.13
2019-02-02T12:27:50.564Z,157.17
2019-02-02T12:30:20.060Z,152.80
2019-02-02T12:32:47.193Z,157.53
2019-02-02T12:35:16.669Z,163.07
2019-02-02T12:37:43.716Z,163.27
2019-02-02T12:40:11.731Z,158.33
2019-02-02T12:42:38.969Z,159.73
2019-02-02T12:45:09.719Z,154.53
2019-02-02T12:47:36.823Z,156.17
2019-02-02T12:50:04.833Z,163.03
2019-02-02T12:52:31.972Z,167.10
2019-02-02T12:54:59.101Z,159.10
2019-02-02T12:57:26.456Z,166.47
2019-02-02T12:59:53.772Z,170.23
2019-02-02T13:02:20.856Z,159.30
2019-02-02T13:04:47.912Z,156.47
2019-02-02T13:07:15.025Z,161.13
2019-02-02T13:09:42.131Z,163.07
2019-02-02T13:12:09.219Z,171.17
2019-02-02T13:14:36.406Z,170.40
2019-02-02T13:17:03.707Z,168.40
2019-02-02T13:19:30.920Z,149.90
2019-02-02T13:21:57.985Z,173.00
2019-02-02T13:24:25.094Z,156.27
2019-02-02T13:26:52.146Z,160.73
2019-02-02T13:29:19.291Z,158.00
2019-02-02T13:31:46.359Z,155.20
2019-02-02T13:34:13.479Z,139.73
2019-02-02T13:36:40.605Z,148.77
2019-02-02T13:39:10.574Z,140.27
2019-02-02T13:41:37.782Z,148.03
2019-02-02T13:44:04.894Z,157.77
2019-02-02T13:46:33.864Z,135.37
2019-02-02T13:49:00.935Z,144.73
2019-02-02T13:51:28.071Z,138.47
2019-02-02T13:53:55.158Z,134.43
2019-02-02T13:56:22.348Z,142.43
2019-02-02T13:58:49.474Z,146.27
2019-02-02T14:01:16.561Z,147.20
2019-02-02T14:03:43.673Z,138.50
2019-02-02T14:06:10.799Z,150.63
2019-02-02T14:08:37.859Z,124.73
2019-02-02T14:11:05.014Z,132.37
2019-02-02T14:13:33.182Z,125.97
2019-02-02T14:16:00.233Z,138.07
2019-02-02T14:18:27.439Z,130.17
2019-02-02T14:20:54.643Z,133.20
2019-02-02T14:23:21.705Z,119.23
2019-02-02T14:25:48.746Z,120.23
2019-02-02T14:28:27.590Z,115.97
2019-02-02T14:30:44.861Z,115.13
2019-02-02T14:33:14.200Z,108.50
2019-02-02T14:35:41.107Z,105.37
2019-02-02T14:38:08.382Z,105.50
2019-02-02T14:40:35.472Z,102.43
2019-02-02T14:43:02.833Z,108.83
2019-02-02T14:45:30.007Z,107.37
2019-02-02T14:47:57.390Z,103.27
2019-02-02T14:50:24.522Z,110.07
2019-02-02T14:52:55.016Z,112.93
2019-02-02T14:55:26.757Z,107.83
2019-02-02T14:57:54.237Z,110.70
2019-02-02T15:00:23.550Z,106.93
2019-02-02T15:02:50.700Z,116.67
2019-02-02T15:05:20.243Z,117.40
2019-02-02T15:07:48.655Z,118.90
2019-02-02T15:10:16.769Z,118.30
2019-02-02T15:12:43.965Z,124.43
2019-02-02T15:15:11.828Z,131.60
2019-02-02T15:17:39.002Z,123.80
2019-02-02T15:20:11.000Z,121.77
2019-02-02T15:22:38.257Z,115.33
2019-02-02T15:25:05.995Z,141.57
2019-02-02T15:27:33.172Z,142.93
2019-02-02T15:30:00.350Z,160.10
2019-02-02T15:32:28.231Z,181.77
2019-02-02T15:34:55.479Z,156.30
2019-02-02T15:37:22.622Z,150.13
2019-02-02T15:39:49.824Z,148.17
2019-02-02T15:42:17.009Z,153.03
2019-02-02T15:44:44.045Z,155.57
2019-02-02T15:47:11.126Z,169.03
2019-02-02T15:49:38.214Z,157.17
2019-02-02T15:52:05.344Z,163.70
2019-02-02T15:54:32.499Z,174.13
2019-02-02T15:56:59.701Z,168.23
2019-02-02T15:59:26.800Z,156.17
2019-02-02T16:01:54.043Z,177.23
2019-02-02T16:04:21.168Z,167.73
2019-02-02T16:06:48.336Z,170.90
2019-02-02T16:09:15.521Z,179.97
2019-02-02T16:11:42.663Z,167.63
2019-02-02T16:14:09.967Z,168.33
2019-02-02T16:16:37.143Z,179.07
2019-02-02T16:19:04.494Z,182.87
2019-02-02T16:21:31.578Z,159.30
2019-02-02T16:23:58.746Z,169.23
2019-02-02T16:26:25.804Z,193.23
2019-02-02T16:28:52.916Z,179.83
2019-02-02T16:31:20.088Z,170.83
2019-02-02T16:33:47.159Z,180.80
2019-02-02T16:36:14.306Z,188.13
2019-02-02T16:38:41.434Z,176.50
2019-02-02T16:41:08.636Z,177.53
2019-02-02T16:43:35.853Z,190.93
2019-02-02T16:46:03.644Z,175.30
2019-02-02T16:48:30.688Z,175.57
2019-02-02T16:50:57.820Z,173.83
2019-02-02T16:53:24.997Z,158.43
2019-02-02T16:55:52.173Z,176.00
2019-02-02T16:58:19.238Z,164.83
2019-02-02T17:00:46.402Z,177.37
2019-02-02T17:03:13.675Z,170.73
2019-02-02T17:05:40.891Z,180.93
2019-02-02T17:08:08.051Z,156.00
2019-02-02T17:10:36.436Z,169.00
2019-02-02T17:13:05.186Z,165.07
2019-02-02T17:15:32.236Z,170.30
2019-02-02T17:17:59.649Z,150.53
2019-02-02T17:20:32.484Z,161.83
2019-02-02T17:22:59.566Z,161.60
2019-02-02T17:25:27.073Z,152.70
2019-02-02T17:27:55.418Z,161.00
2019-02-02T17:30:23.035Z,151.30
2019-02-02T17:32:51.724Z,154.57
2019-02-02T17:35:19.105Z,161.13
2019-02-02T17:37:46.270Z,167.10
2019-02-02T17:40:16.236Z,177.30
2019-02-02T17:42:43.632Z,158.23
2019-02-02T17:45:13.120Z,158.00
2019-02-02T17:47:40.256Z,159.00
2019-02-02T17:50:11.354Z,155.03
2019-02-02T17:52:39.589Z,145.40
2019-02-02T17:55:07.616Z,165.00
2019-02-02T17:57:34.790Z,157.93
2019-02-02T18:00:02.271Z,159.30
2019-02-02T18:02:30.194Z,179.23
2019-02-02T18:04:57.501Z,165.17
2019-02-02T18:07:24.646Z,154.13
2019-02-02T18:09:51.923Z,157.27
2019-02-02T18:12:19.088Z,149.97
2019-02-02T18:14:46.202Z,164.87
2019-02-02T18:17:13.292Z,169.43
2019-02-02T18:19:40.432Z,156.53
2019-02-02T18:22:07.628Z,150.87
2019-02-02T18:24:34.880Z,150.60
2019-02-02T18:27:02.170Z,147.03
2019-02-02T18:29:29.385Z,152.67
2019-02-02T18:31:56.590Z,157.73
2019-02-02T18:34:23.856Z,157.40
2019-02-02T18:36:51.020Z,149.60
2019-02-02T18:39:18.206Z,162.97
2019-02-02T18:41:45.361Z,159.43
2019-02-02T18:44:12.739Z,154.93
2019-02-02T18:46:39.789Z,162.10
2019-02-02T18:49:06.893Z,157.67
2019-02-02T18:51:34.025Z,172.90
2019-02-02T18:54:01.102Z,178.43
2019-02-02T18:56:28.171Z,168.97
2019-02-02T18:58:55.264Z,164.83
2019-02-02T19:01:22.538Z,171.23
2019-02-02T19:03:49.668Z,175.33
2019-02-02T19:06:16.735Z,170.43
2019-02-02T19:08:44.067Z,164.60
2019-02-02T19:11:11.202Z,164.60
2019-02-02T19:13:38.497Z,159.77
2019-02-02T19:16:05.530Z,166.40
2019-02-02T19:18:32.843Z,169.67
2019-02-02T19:20:59.973Z,161.63
2019-02-02T19:23:27.124Z,156.53
2019-02-02T19:25:54.188Z,165.77
2019-02-02T19:28:21.292Z,171.03
2019-02-02T19:30:48.407Z,153.07
2019-02-02T19:33:15.521Z,172.60
2019-02-02T19:35:42.647Z,164.97
2019-02-02T19:38:10.857Z,153.50
2019-02-02T19:40:38.090Z,158.10
2019-02-02T19:43:05.400Z,167.17
2019-02-02T19:45:32.459Z,163.60
2019-02-02T19:47:59.887Z,158.33
2019-02-02T19:50:27.028Z,160.40
2019-02-02T19:52:54.647Z,168.23
2019-02-02T19:55:22.108Z,165.77
2019-02-02T19:57:49.323Z,156.27
2019-02-02T20:00:18.616Z,161.30
2019-02-02T20:02:45.677Z,181.33
2019-02-02T20:05:13.145Z,199.40
2019-02-02T20:07:40.306Z,189.00
2019-02-02T20:10:10.251Z,192.63
2019-02-02T20:12:37.361Z,207.43
2019-02-02T20:15:06.474Z,198.47
2019-02-02T20:17:33.807Z,201.00
2019-02-02T20:20:00.865Z,192.63
2019-02-02T20:22:28.062Z,215.50
2019-02-02T20:24:55.284Z,216.80
2019-02-02T20:27:22.396Z,210.90
2019-02-02T20:29:50.064Z,219.93
2019-02-02T20:32:17.793Z,198.60
2019-02-02T20:34:44.865Z,229.23
2019-02-02T20:37:12.070Z,225.30
2019-02-02T20:39:39.170Z,233.87
2019-02-02T20:42:06.307Z,215.87
2019-02-02T20:44:33.504Z,212.43
2019-02-02T20:47:03.110Z,219.43
2019-02-02T20:49:29.581Z,221.63
2019-02-02T20:51:56.791Z,254.03
2019-02-02T20:54:24.105Z,285.83
2019-02-02T20:56:51.142Z,231.50
2019-02-02T20:59:19.012Z,208.50
2019-02-02T21:01:46.101Z,203.50
2019-02-02T21:04:13.156Z,190.13
2019-02-02T21:06:40.223Z,212.00
2019-02-02T21:09:07.433Z,194.83
2019-02-02T21:11:34.519Z,192.20
2019-02-02T21:14:01.708Z,188.57
2019-02-02T21:16:28.909Z,189.30
2019-02-02T21:18:56.089Z,194.17
2019-02-02T21:21:23.394Z,202.20
2019-02-02T21:23:50.457Z,205.10
2019-02-02T21:26:17.848Z,186.43
2019-02-02T21:28:50.560Z,187.17
2019-02-02T21:31:13.949Z,182.57
2019-02-02T21:33:41.054Z,184.83
2019-02-02T21:36:08.216Z,206.83
2019-02-02T21:38:36.450Z,183.43
2019-02-02T21:41:07.325Z,197.40
2019-02-02T21:43:34.446Z,167.57
2019-02-02T21:46:02.134Z,180.03
2019-02-02T21:48:29.187Z,165.90
2019-02-02T21:50:56.306Z,168.17
2019-02-02T21:53:23.849Z,157.77
2019-02-02T21:55:51.150Z,170.40
2019-02-02T21:58:18.192Z,154.77
2019-02-02T22:00:45.646Z,172.23
2019-02-02T22:03:12.915Z,160.37
2019-02-02T22:05:40.261Z,163.03
2019-02-02T22:08:09.067Z,155.03
2019-02-02T22:10:36.542Z,153.13
2019-02-02T22:13:05.320Z,145.23
2019-02-02T22:15:32.461Z,160.00
2019-02-02T22:17:59.522Z,157.50
2019-02-02T22:20:26.684Z,146.37
2019-02-02T22:22:54.006Z,155.60
2019-02-02T22:25:25.517Z,157.73
2019-02-02T22:27:52.689Z,159.47
2019-02-02T22:30:24.656Z,161.47
2019-02-02T22:32:51.874Z,163.67
2019-02-02T22:35:19.038Z,169.20
2019-02-02T22:37:46.409Z,164.47
2019-02-02T22:40:15.984Z,165.00
2019-02-02T22:42:43.234Z,155.27
2019-02-02T22:45:13.050Z,149.83
2019-02-02T22:47:40.474Z,154.07
2019-02-02T22:50:09.656Z,160.13
2019-02-02T22:52:36.979Z,168.27
2019-02-02T22:55:05.552Z,169.70
2019-02-02T22:57:32.622Z,179.83
2019-02-02T22:59:59.797Z,174.83
2019-02-02T23:02:26.933Z,176.80
2019-02-02T23:05:44.694Z,174.40
2019-02-02T23:08:44.822Z,180.10
2019-02-02T23:11:30.102Z,179.33
2019-02-02T23:14:30.206Z,178.43
2019-02-02T23:16:57.631Z,173.73
2019-02-02T23:19:24.809Z,183.30
2019-02-02T23:21:52.097Z,189.73
2019-02-02T23:24:19.192Z,187.47
2019-02-02T23:26:46.795Z,202.90
2019-02-02T23:29:13.913Z,194.77
2019-02-02T23:31:40.986Z,201.37
2019-02-02T23:34:08.150Z,186.07
2019-02-02T23:36:35.244Z,195.50
2019-02-02T23:39:04.118Z,215.90
2019-02-02T23:41:31.174Z,213.20
2019-02-02T23:43:58.258Z,211.43
2019-02-02T23:46:25.334Z,202.87
2019-02-02T23:48:52.490Z,205.50
2019-02-02T23:51:19.625Z,216.20
2019-02-02T23:53:46.701Z,208.90
2019-02-02T23:56:13.973Z,208.43
2019-02-02T23:58:41.485Z,235.87
